createdAt,value
2018-05-07T00:07:14.009Z,26.9
2018-05-07T00:17:28.676Z,27.4
2018-05-07T00:27:51.151Z,27.5
2018-05-07T00:38:05.494Z,29.9
2018-05-07T00:48:16.977Z,28.6
2018-05-07T00:58:31.560Z,27.9
2018-05-07T01:08:43.876Z,28.0
2018-05-07T01:19:29.041Z,29.0
2018-05-07T01:29:40.813Z,30.0
2018-05-07T01:40:26.178Z,29.2
2018-05-07T01:51:12.708Z,28.1
2018-05-07T02:01:27.508Z,31.4
2018-05-07T02:11:41.835Z,28.4
2018-05-07T02:21:56.155Z,27.7
2018-05-07T02:32:10.654Z,29.8
2018-05-07T02:42:24.609Z,27.6
2018-05-07T02:52:39.810Z,28.1
2018-05-07T03:02:53.570Z,27.0
2018-05-07T03:13:39.046Z,27.2
2018-05-07T03:23:50.888Z,28.0
2018-05-07T03:34:36.292Z,27.4
2018-05-07T03:45:22.000Z,27.1
2018-05-07T03:55:36.207Z,28.8
2018-05-07T04:05:51.049Z,27.6
2018-05-07T04:16:04.707Z,28.0
2018-05-07T04:26:17.466Z,27.1
2018-05-07T04:36:31.504Z,33.3
2018-05-07T04:47:16.856Z,36.5
2018-05-07T04:57:28.720Z,29.8
2018-05-07T05:07:42.537Z,27.7
2018-05-07T05:17:57.235Z,26.8
2018-05-07T05:28:42.602Z,27.5
2018-05-07T05:39:40.049Z,28.3
2018-05-07T05:49:54.784Z,39.5
2018-05-07T06:00:07.153Z,27.8
2018-05-07T06:10:19.134Z,27.1
2018-05-07T06:20:31.518Z,27.9
2018-05-07T06:30:45.875Z,28.2
2018-05-07T06:40:57.909Z,27.5
2018-05-07T06:51:12.388Z,27.6
2018-05-07T07:01:26.635Z,26.9
2018-05-07T07:11:40.984Z,28.1
2018-05-07T07:22:26.317Z,28.3
2018-05-07T07:32:40.759Z,29.8
2018-05-07T07:43:32.037Z,29.8
2018-05-07T07:53:45.667Z,28.0
2018-05-07T08:04:32.549Z,28.2
2018-05-07T08:15:18.193Z,27.5
2018-05-07T08:26:03.935Z,25.7
2018-05-07T08:36:49.983Z,24.5
2018-05-07T08:47:36.197Z,25.5
2018-05-07T08:57:50.036Z,22.7
2018-05-07T09:08:04.836Z,24.2
2018-05-07T09:18:40.555Z,22.0
2018-05-07T09:29:25.746Z,21.7
2018-05-07T09:43:40.168Z,22.4
2018-05-07T09:53:54.693Z,21.0
2018-05-07T10:04:08.597Z,21.1
2018-05-07T10:14:22.649Z,34.9
2018-05-07T10:24:36.917Z,20.7
2018-05-07T10:34:56.175Z,19.7
2018-05-07T10:45:10.831Z,19.5
2018-05-07T10:55:56.833Z,18.6
2018-05-07T11:06:08.704Z,19.3
2018-05-07T11:16:22.728Z,19.5
2018-05-07T11:27:08.022Z,19.8
2018-05-07T11:37:21.648Z,19.1
2018-05-07T11:57:51.732Z,20.0
2018-05-07T12:08:05.575Z,28.3
2018-05-07T12:18:17.495Z,20.3
2018-05-07T12:28:31.829Z,20.8
2018-05-07T12:38:46.154Z,25.7
2018-05-07T12:49:00.588Z,20.8
2018-05-07T13:11:14.985Z,21.3
2018-05-07T13:22:00.398Z,20.7
2018-05-07T13:32:49.389Z,20.9
2018-05-07T13:53:53.904Z,21.2
2018-05-07T14:05:16.315Z,23.3
2018-05-07T14:16:02.092Z,21.6
2018-05-07T14:26:17.032Z,21.0
2018-05-07T14:37:05.711Z,21.3
2018-05-07T14:47:23.089Z,20.8
2018-05-07T14:58:29.997Z,20.8
2018-05-07T15:09:17.028Z,22.8
2018-05-07T15:31:47.189Z,23.8
2018-05-07T17:44:00.363Z,23.5
2018-05-07T18:07:55.661Z,25.5
2018-05-07T18:18:10.150Z,25.9
2018-05-07T18:44:07.372Z,26.4
2018-05-07T18:54:19.812Z,26.2
2018-05-07T19:05:14.712Z,27.1
2018-05-07T19:15:28.807Z,27.6
2018-05-07T19:25:43.522Z,27.5
2018-05-07T19:36:28.748Z,27.9
2018-05-07T19:46:43.422Z,26.7
2018-05-07T19:58:50.904Z,27.2
2018-05-07T20:09:05.713Z,27.7
2018-05-07T20:19:20.063Z,27.3
2018-05-07T20:29:34.240Z,28.7
2018-05-07T20:39:47.260Z,33.3
2018-05-07T20:50:01.611Z,28.1
2018-05-07T21:00:14.248Z,31.1
2018-05-07T21:10:26.048Z,27.6
2018-05-07T21:20:40.576Z,30.3
2018-05-07T21:31:33.231Z,28.0
2018-05-07T21:41:47.973Z,28.9
2018-05-07T21:52:33.117Z,27.8
2018-05-07T22:03:19.272Z,42.8
2018-05-07T22:14:04.604Z,34.7
2018-05-07T22:24:50.654Z,28.0
2018-05-07T22:35:36.164Z,30.8
2018-05-07T22:46:22.488Z,32.4
2018-05-07T22:56:36.516Z,28.9
2018-05-07T23:06:50.614Z,27.1
2018-05-07T23:17:05.206Z,34.7
2018-05-07T23:27:51.034Z,28.5
2018-05-07T23:38:05.379Z,27.1
2018-05-07T23:48:17.486Z,28.9
2018-05-07T23:58:34.689Z,27.5
